Terminal Aerodrome Forecast
Issued by NWS Mt. Holly, NJ

Home | Current Version | Previous Version | Text Only | Print | Product List | Glossary On
Versions: 1 2 3 4 5 6 7 8 9 10 11 12 13 14 15 16 17 18 19 20 21 22 23 24 25 26
373
FTUS41 KPHI 261754
TAFILG
TAF
KILG 261754Z 2618/2718 30009G17KT P6SM FEW050 BKN250
     FM270000 33006KT P6SM BKN250
     FM270300 VRB04KT P6SM SCT250
     FM271300 03006KT P6SM FEW050 BKN200
     FM271700 36007KT P6SM BKN060 BKN150=

USA.gov is the U.S. government's official web portal to all federal, state and local government web resources and services.